createdAt,value
2017-04-05T00:00:21.286Z,0
2017-04-05T00:01:01.811Z,0
2017-04-05T00:01:42.341Z,0
2017-04-05T00:02:22.874Z,0
2017-04-05T00:03:03.417Z,0
2017-04-05T00:03:43.947Z,0
2017-04-05T00:04:24.482Z,0
2017-04-05T00:05:05.013Z,0
2017-04-05T00:05:45.550Z,0
2017-04-05T00:06:26.082Z,0
2017-04-05T00:07:06.618Z,0
2017-04-05T00:07:47.168Z,0
2017-04-05T00:08:27.680Z,0
2017-04-05T00:09:08.213Z,0
2017-04-05T00:09:48.748Z,0
2017-04-05T00:10:29.283Z,0
2017-04-05T00:11:09.821Z,0
2017-04-05T00:11:50.355Z,0
2017-04-05T00:12:30.887Z,0
2017-04-05T00:13:11.426Z,0
2017-04-05T00:13:51.953Z,0
2017-04-05T00:14:32.484Z,0
2017-04-05T00:15:13.023Z,0
2017-04-05T00:15:53.554Z,0
2017-04-05T00:16:34.087Z,0
2017-04-05T00:17:14.621Z,0
2017-04-05T00:17:55.157Z,0
2017-04-05T00:18:35.684Z,0
2017-04-05T00:19:16.231Z,0
2017-04-05T00:19:56.769Z,0
2017-04-05T00:20:37.306Z,0
2017-04-05T00:21:17.827Z,0
2017-04-05T00:21:58.359Z,0
2017-04-05T00:22:38.888Z,0
2017-04-05T00:23:19.433Z,0
2017-04-05T00:23:59.980Z,0
2017-04-05T00:24:40.509Z,0
2017-04-05T00:25:21.061Z,0
2017-04-05T00:26:01.575Z,0
2017-04-05T00:26:42.105Z,0
2017-04-05T00:27:22.640Z,0
2017-04-05T00:28:03.178Z,0
2017-04-05T00:28:43.719Z,0
2017-04-05T00:29:24.249Z,0
2017-04-05T00:30:04.774Z,0
2017-04-05T00:30:45.298Z,0
2017-04-05T00:31:25.835Z,0
2017-04-05T00:32:06.359Z,0
2017-04-05T00:32:46.903Z,0
2017-04-05T00:33:27.438Z,0
2017-04-05T00:34:07.967Z,0
2017-04-05T00:34:48.561Z,0
2017-04-05T00:35:29.088Z,0
2017-04-05T00:36:09.619Z,0
2017-04-05T00:36:50.156Z,0
2017-04-05T00:37:30.694Z,0
2017-04-05T00:38:11.220Z,0
2017-04-05T00:38:51.755Z,0
2017-04-05T00:39:32.287Z,0
2017-04-05T00:40:12.813Z,0
2017-04-05T00:40:53.347Z,0
2017-04-05T00:41:33.879Z,0
2017-04-05T00:42:14.411Z,0
2017-04-05T00:42:54.942Z,0
2017-04-05T00:43:35.469Z,0
2017-04-05T00:44:16.004Z,0
2017-04-05T00:44:56.536Z,0
2017-04-05T00:45:37.063Z,0
2017-04-05T00:46:17.593Z,0
2017-04-05T00:46:58.127Z,0
2017-04-05T00:47:38.660Z,0
2017-04-05T00:48:19.197Z,0
2017-04-05T00:48:59.731Z,0
2017-04-05T00:49:40.263Z,0
2017-04-05T00:50:20.796Z,0
2017-04-05T00:51:01.326Z,0
2017-04-05T00:51:41.856Z,0
2017-04-05T00:52:22.395Z,0
2017-04-05T00:53:02.922Z,0
2017-04-05T00:53:43.467Z,0
2017-04-05T00:54:24.004Z,0
2017-04-05T00:55:04.526Z,0
2017-04-05T00:55:45.060Z,0
2017-04-05T00:56:25.595Z,0
2017-04-05T00:57:06.126Z,0
2017-04-05T00:57:46.666Z,0
2017-04-05T00:58:27.198Z,0
2017-04-05T00:59:07.731Z,0
2017-04-05T00:59:48.265Z,0
2017-04-05T01:00:28.810Z,0
2017-04-05T01:01:09.340Z,0
2017-04-05T01:01:49.873Z,0
2017-04-05T01:02:30.405Z,0
2017-04-05T01:03:10.935Z,0
2017-04-05T01:03:51.469Z,0
2017-04-05T01:04:32.009Z,0
2017-04-05T01:05:12.545Z,0
2017-04-05T01:05:53.076Z,0
2017-04-05T01:06:33.609Z,0
2017-04-05T01:07:14.147Z,0
2017-04-05T01:07:54.673Z,0
2017-04-05T01:08:35.211Z,0
2017-04-05T01:09:15.745Z,0
2017-04-05T01:09:56.278Z,0
2017-04-05T01:10:36.809Z,0
2017-04-05T01:11:17.335Z,0
2017-04-05T01:11:57.875Z,0
2017-04-05T01:12:38.416Z,0
2017-04-05T01:13:18.947Z,0
2017-04-05T01:13:59.480Z,0
2017-04-05T01:14:40.012Z,0
2017-04-05T01:15:20.551Z,0
2017-04-05T01:16:01.089Z,0
2017-04-05T01:16:41.622Z,0
2017-04-05T01:17:22.170Z,0
2017-04-05T01:18:02.706Z,0
2017-04-05T01:18:43.238Z,0
2017-04-05T01:19:23.771Z,0
2017-04-05T01:20:04.303Z,0
2017-04-05T01:20:44.829Z,0
2017-04-05T01:21:25.370Z,0
2017-04-05T01:22:05.894Z,0
2017-04-05T01:22:46.436Z,0
2017-04-05T01:23:26.972Z,0
2017-04-05T01:24:07.502Z,0
2017-04-05T01:24:48.035Z,0
2017-04-05T01:25:28.573Z,0
2017-04-05T01:26:09.106Z,0
2017-04-05T01:26:49.641Z,0
2017-04-05T01:27:30.175Z,0
2017-04-05T01:28:10.708Z,0
2017-04-05T01:28:51.239Z,0
2017-04-05T01:29:31.777Z,0
2017-04-05T01:30:12.309Z,0
2017-04-05T01:30:52.851Z,0
2017-04-05T01:31:33.384Z,0
2017-04-05T01:32:13.915Z,0
2017-04-05T01:32:54.450Z,0
2017-04-05T01:33:34.986Z,0
2017-04-05T01:34:15.524Z,0
2017-04-05T01:34:56.058Z,0
2017-04-05T01:35:36.591Z,0
2017-04-05T01:36:17.125Z,0
2017-04-05T01:36:57.655Z,0
2017-04-05T01:37:38.215Z,0
2017-04-05T01:38:18.720Z,0
2017-04-05T01:38:59.259Z,0
2017-04-05T01:39:39.783Z,0
2017-04-05T01:40:20.367Z,0
2017-04-05T01:41:00.901Z,0
2017-04-05T01:41:41.433Z,0
2017-04-05T01:42:21.959Z,0
2017-04-05T01:43:02.495Z,0
2017-04-05T01:43:43.028Z,0
2017-04-05T01:44:23.564Z,0
2017-04-05T01:45:04.104Z,0
2017-04-05T01:45:44.638Z,0
2017-04-05T01:46:25.163Z,0
2017-04-05T01:47:05.696Z,0
2017-04-05T01:47:46.232Z,0
2017-04-05T01:48:26.764Z,0
2017-04-05T01:49:07.299Z,0
2017-04-05T01:49:47.830Z,0
2017-04-05T01:50:28.358Z,0
2017-04-05T01:51:08.892Z,0
2017-04-05T01:51:49.428Z,0
2017-04-05T01:52:29.974Z,0
2017-04-05T01:53:10.512Z,0
2017-04-05T01:53:51.050Z,0
2017-04-05T01:54:31.593Z,0
2017-04-05T01:55:12.122Z,0
2017-04-05T01:55:52.654Z,0
2017-04-05T01:56:33.189Z,0
2017-04-05T01:57:13.723Z,0
2017-04-05T01:57:54.251Z,0
2017-04-05T01:58:34.784Z,0
2017-04-05T01:59:15.311Z,0
2017-04-05T01:59:55.848Z,0
2017-04-05T02:00:36.381Z,0
2017-04-05T02:01:16.915Z,0
2017-04-05T02:01:57.452Z,0
2017-04-05T02:02:37.979Z,0
2017-04-05T02:03:18.512Z,0
2017-04-05T02:03:59.052Z,0
2017-04-05T02:04:39.585Z,0
2017-04-05T02:05:20.118Z,0
2017-04-05T02:06:00.649Z,0
2017-04-05T02:06:41.181Z,0
2017-04-05T02:07:21.714Z,0
2017-04-05T02:08:02.249Z,0
2017-04-05T02:08:42.782Z,0
2017-04-05T02:09:23.317Z,0
2017-04-05T02:10:03.852Z,0
2017-04-05T02:10:44.388Z,0
2017-04-05T02:11:24.921Z,0
2017-04-05T02:12:05.458Z,0
2017-04-05T02:12:45.993Z,0
2017-04-05T02:13:26.527Z,0
2017-04-05T02:14:07.054Z,0
2017-04-05T02:14:47.586Z,0
2017-04-05T02:15:28.117Z,0
2017-04-05T02:16:08.660Z,0
2017-04-05T02:16:49.193Z,0
2017-04-05T02:17:29.726Z,0
2017-04-05T02:18:10.261Z,0
2017-04-05T02:18:50.789Z,0
2017-04-05T02:19:31.319Z,0
2017-04-05T02:20:11.855Z,0
2017-04-05T02:20:52.394Z,0
2017-04-05T02:21:32.929Z,0
2017-04-05T02:22:13.474Z,0
2017-04-05T02:22:53.990Z,0
2017-04-05T02:23:34.523Z,0
2017-04-05T02:24:15.067Z,0
2017-04-05T02:24:55.599Z,0
2017-04-05T02:25:36.132Z,0
2017-04-05T02:26:16.667Z,0
2017-04-05T02:26:57.211Z,0
2017-04-05T02:27:37.743Z,0
2017-04-05T02:28:18.269Z,0
2017-04-05T02:28:58.791Z,0
2017-04-05T02:29:39.333Z,0
2017-04-05T02:30:19.865Z,0
2017-04-05T02:31:00.398Z,0
2017-04-05T02:31:40.930Z,0
2017-04-05T02:32:21.465Z,0
2017-04-05T02:33:01.997Z,0
2017-04-05T02:33:42.535Z,0
2017-04-05T02:34:23.097Z,0
2017-04-05T02:35:03.602Z,0
2017-04-05T02:35:44.127Z,0
2017-04-05T02:36:24.663Z,0
2017-04-05T02:37:05.191Z,0
2017-04-05T02:37:45.730Z,0
2017-04-05T02:38:26.262Z,0
2017-04-05T02:39:06.794Z,0
2017-04-05T02:39:47.326Z,0
2017-04-05T02:40:27.858Z,0
2017-04-05T02:41:08.393Z,0
2017-04-05T02:41:48.923Z,0
2017-04-05T02:42:29.458Z,0
2017-04-05T02:43:09.990Z,0
2017-04-05T02:43:50.531Z,0
2017-04-05T02:44:31.068Z,0
2017-04-05T02:45:11.598Z,0
2017-04-05T02:45:52.131Z,0
2017-04-05T02:46:32.666Z,0
2017-04-05T02:47:13.193Z,0
2017-04-05T02:47:53.732Z,0
2017-04-05T02:48:34.262Z,0
2017-04-05T02:49:14.796Z,0
2017-04-05T02:49:55.328Z,0
2017-04-05T02:50:35.862Z,0
2017-04-05T02:51:16.439Z,0
2017-04-05T02:51:56.967Z,0
2017-04-05T02:52:37.501Z,0
2017-04-05T02:53:18.036Z,0
2017-04-05T02:53:58.572Z,0
2017-04-05T02:54:39.103Z,0
2017-04-05T02:55:19.631Z,0
2017-04-05T02:56:00.160Z,0
2017-04-05T02:56:40.701Z,0
2017-04-05T02:57:21.238Z,0
2017-04-05T02:58:01.775Z,0
2017-04-05T02:58:42.305Z,0
2017-04-05T02:59:22.837Z,0
2017-04-05T03:00:03.372Z,0
2017-04-05T03:00:43.901Z,0
2017-04-05T03:01:24.442Z,0
2017-04-05T03:02:04.973Z,0
2017-04-05T03:02:45.506Z,0
2017-04-05T03:03:26.039Z,0
2017-04-05T03:04:06.568Z,0
2017-04-05T03:04:47.102Z,0
2017-04-05T03:05:27.646Z,0
2017-04-05T03:06:08.186Z,0
2017-04-05T03:06:48.717Z,0
2017-04-05T03:07:29.260Z,0
2017-04-05T03:08:09.792Z,0
2017-04-05T03:08:50.326Z,0
2017-04-05T03:09:30.858Z,0
2017-04-05T03:10:11.391Z,0
2017-04-05T03:10:51.969Z,0
2017-04-05T03:11:32.513Z,0
2017-04-05T03:12:13.053Z,0
2017-04-05T03:12:53.587Z,0
2017-04-05T03:13:34.112Z,0
2017-04-05T03:14:14.631Z,0
2017-04-05T03:14:55.130Z,0
2017-04-05T03:15:35.691Z,0
2017-04-05T03:16:16.240Z,0
2017-04-05T03:16:56.774Z,0
2017-04-05T03:17:37.339Z,0
2017-04-05T03:18:17.861Z,0
2017-04-05T03:18:58.461Z,0
2017-04-05T03:19:38.880Z,0
2017-04-05T03:20:19.435Z,0
2017-04-05T03:20:59.920Z,0
2017-04-05T03:21:40.459Z,0
2017-04-05T03:22:22.415Z,0
2017-04-05T03:23:04.826Z,0
2017-04-05T03:23:46.321Z,0
2017-04-05T03:24:26.851Z,0
2017-04-05T03:25:07.380Z,0
2017-04-05T03:25:47.930Z,0
2017-04-05T03:26:28.410Z,0
2017-04-05T03:27:08.921Z,0
2017-04-05T03:27:49.434Z,0
2017-04-05T03:28:29.947Z,0
2017-04-05T03:29:10.493Z,0
2017-04-05T03:29:51.047Z,0
2017-04-05T03:30:31.566Z,0
2017-04-05T03:31:12.080Z,0
2017-04-05T03:31:52.609Z,0
2017-04-05T03:32:33.121Z,0
2017-04-05T03:33:13.607Z,0
2017-04-05T03:33:54.124Z,0
2017-04-05T03:34:34.656Z,0
2017-04-05T03:35:15.200Z,0
2017-04-05T03:35:55.711Z,0
2017-04-05T03:36:36.236Z,0
2017-04-05T03:37:16.772Z,0
2017-04-05T03:37:57.284Z,0
2017-04-05T03:38:37.803Z,0
2017-04-05T03:39:18.307Z,0
2017-04-05T03:39:58.821Z,0
2017-04-05T03:40:39.377Z,0
2017-04-05T03:41:19.908Z,0
2017-04-05T03:42:00.457Z,0
2017-04-05T03:42:41.041Z,0
2017-04-05T03:43:21.566Z,0
2017-04-05T03:44:02.100Z,0
2017-04-05T03:44:42.604Z,0
2017-04-05T03:45:23.113Z,0
2017-04-05T03:46:03.637Z,0
2017-04-05T03:46:44.167Z,0
2017-04-05T03:47:24.692Z,0
2017-04-05T03:48:05.215Z,0
2017-04-05T03:48:45.738Z,0
2017-04-05T03:49:26.281Z,0
2017-04-05T03:50:06.837Z,0
2017-04-05T03:50:47.365Z,0
2017-04-05T03:51:27.896Z,0
2017-04-05T03:52:08.426Z,0
2017-04-05T03:52:48.976Z,0
2017-04-05T03:53:29.524Z,0
2017-04-05T03:54:10.058Z,0
2017-04-05T03:54:50.595Z,0
2017-04-05T03:55:31.162Z,0
2017-04-05T03:56:11.691Z,0
2017-04-05T03:56:52.220Z,0
2017-04-05T03:57:32.752Z,0
2017-04-05T03:58:13.287Z,0
2017-04-05T03:58:53.811Z,0
2017-04-05T03:59:34.334Z,0
2017-04-05T04:00:14.921Z,0
2017-04-05T04:00:55.483Z,0
2017-04-05T04:01:36.031Z,0
2017-04-05T04:02:16.529Z,0
2017-04-05T04:02:57.060Z,0
2017-04-05T04:03:37.601Z,0
2017-04-05T04:04:18.142Z,0
2017-04-05T04:04:58.715Z,0
2017-04-05T04:05:39.256Z,0
2017-04-05T04:06:19.781Z,0
2017-04-05T04:07:00.294Z,0
2017-04-05T04:07:40.830Z,0
2017-04-05T04:08:21.355Z,0
2017-04-05T04:09:01.888Z,0
2017-04-05T04:09:42.412Z,0
2017-04-05T04:10:22.955Z,0
2017-04-05T04:11:03.508Z,0
2017-04-05T04:11:44.045Z,0
2017-04-05T04:12:24.568Z,0
2017-04-05T04:13:05.106Z,0
2017-04-05T04:13:45.652Z,0
2017-04-05T04:14:26.196Z,0
2017-04-05T04:15:06.740Z,0
2017-04-05T04:15:47.315Z,0
2017-04-05T04:16:27.842Z,0
2017-04-05T04:17:08.379Z,0
2017-04-05T04:17:48.911Z,0
2017-04-05T04:18:29.438Z,0
2017-04-05T04:19:09.972Z,0
2017-04-05T04:19:50.502Z,0
2017-04-05T04:20:31.042Z,0
2017-04-05T04:21:11.574Z,0
2017-04-05T04:21:52.092Z,0
2017-04-05T04:22:32.623Z,0
2017-04-05T04:23:13.158Z,0
2017-04-05T04:23:53.703Z,0
2017-04-05T04:24:34.273Z,0
2017-04-05T04:25:14.800Z,0
2017-04-05T04:25:55.395Z,0
2017-04-05T04:26:35.935Z,0
2017-04-05T04:27:16.461Z,0
2017-04-05T04:27:56.993Z,0
2017-04-05T04:28:37.522Z,0
2017-04-05T04:29:18.059Z,0
2017-04-05T04:29:58.599Z,0
2017-04-05T04:30:39.154Z,0
2017-04-05T04:31:19.721Z,0
2017-04-05T04:32:00.257Z,4
2017-04-05T04:32:40.794Z,4
2017-04-05T04:33:21.331Z,0
2017-04-05T04:34:01.865Z,0
2017-04-05T04:34:42.397Z,4
2017-04-05T04:35:22.975Z,4
2017-04-05T04:36:03.520Z,4
2017-04-05T04:36:44.051Z,4
2017-04-05T04:37:24.577Z,4
2017-04-05T04:38:05.108Z,8
2017-04-05T04:38:45.639Z,4
2017-04-05T04:39:26.173Z,8
2017-04-05T04:40:06.713Z,4
2017-04-05T04:40:48.097Z,8
2017-04-05T04:41:28.636Z,8
2017-04-05T04:42:09.156Z,12
2017-04-05T04:42:49.680Z,12
2017-04-05T04:43:30.213Z,12
2017-04-05T04:44:10.845Z,12
2017-04-05T04:44:51.377Z,16
2017-04-05T04:45:31.929Z,20
2017-04-05T04:46:12.435Z,20
2017-04-05T04:46:52.968Z,24
2017-04-05T04:47:33.491Z,24
2017-04-05T04:48:14.018Z,24
2017-04-05T04:48:54.581Z,28
2017-04-05T04:49:35.109Z,32
2017-04-05T04:50:15.639Z,36
2017-04-05T04:50:56.179Z,36
2017-04-05T04:51:36.710Z,44
2017-04-05T04:52:17.248Z,44
2017-04-05T04:52:57.805Z,52
2017-04-05T04:53:38.346Z,56
2017-04-05T04:54:18.883Z,56
2017-04-05T04:54:59.420Z,64
2017-04-05T04:55:39.960Z,68
2017-04-05T04:56:20.493Z,76
2017-04-05T04:57:01.029Z,80
2017-04-05T04:57:41.562Z,84
2017-04-05T04:58:22.101Z,88
2017-04-05T04:59:02.663Z,96
2017-04-05T04:59:43.211Z,100
2017-04-05T05:00:23.773Z,108
2017-04-05T05:01:04.303Z,112
2017-04-05T05:01:45.128Z,116
2017-04-05T05:02:25.695Z,124
2017-04-05T05:03:06.227Z,132
2017-04-05T05:03:46.753Z,136
2017-04-05T05:04:27.278Z,144
2017-04-05T05:05:07.813Z,152
2017-04-05T05:05:48.351Z,156
2017-04-05T05:06:28.883Z,164
2017-04-05T05:07:09.423Z,172
2017-04-05T05:07:49.928Z,180
2017-04-05T05:08:30.462Z,184
2017-04-05T05:09:10.998Z,192
2017-04-05T05:09:51.531Z,200
2017-04-05T05:10:32.060Z,204
2017-04-05T05:11:12.588Z,212
2017-04-05T05:11:53.122Z,224
2017-04-05T05:12:33.650Z,228
2017-04-05T05:13:14.162Z,240
2017-04-05T05:13:54.693Z,248
2017-04-05T05:14:35.229Z,256
2017-04-05T05:15:15.773Z,264
2017-04-05T05:15:56.293Z,272
2017-04-05T05:16:36.819Z,272
2017-04-05T05:17:17.356Z,272
2017-04-05T05:17:57.876Z,272
2017-04-05T05:18:38.397Z,272
2017-04-05T05:19:18.941Z,280
2017-04-05T05:19:59.475Z,288
2017-04-05T05:20:39.998Z,296
2017-04-05T05:21:20.531Z,308
2017-04-05T05:22:01.077Z,320
2017-04-05T05:22:41.623Z,332
2017-04-05T05:23:22.144Z,344
2017-04-05T05:24:02.657Z,360
2017-04-05T05:24:43.188Z,372
2017-04-05T05:25:23.726Z,384
2017-04-05T05:26:04.257Z,388
2017-04-05T05:26:44.795Z,400
2017-04-05T05:27:25.321Z,416
2017-04-05T05:28:05.846Z,432
2017-04-05T05:28:46.374Z,456
2017-04-05T05:29:26.900Z,476
2017-04-05T05:30:07.429Z,496
2017-04-05T05:30:47.939Z,508
2017-04-05T05:31:28.467Z,520
2017-04-05T05:32:09.000Z,528
2017-04-05T05:32:49.561Z,536
2017-04-05T05:33:30.113Z,548
2017-04-05T05:34:10.630Z,568
2017-04-05T05:34:51.168Z,584
2017-04-05T05:35:31.686Z,596
2017-04-05T05:36:12.200Z,612
2017-04-05T05:36:52.776Z,628
2017-04-05T05:37:33.345Z,648
2017-04-05T05:38:13.874Z,664
2017-04-05T05:38:54.447Z,684
2017-04-05T05:39:34.982Z,700
2017-04-05T05:40:15.501Z,716
2017-04-05T05:40:56.014Z,740
2017-04-05T05:41:36.542Z,760
2017-04-05T05:42:17.091Z,772
2017-04-05T05:42:57.630Z,784
2017-04-05T05:43:38.174Z,780
2017-04-05T05:44:18.846Z,784
2017-04-05T05:44:59.394Z,792
2017-04-05T05:45:39.916Z,792
2017-04-05T05:46:20.471Z,812
2017-04-05T05:47:01.015Z,852
2017-04-05T05:47:41.792Z,904
2017-04-05T05:48:22.387Z,952
2017-04-05T05:49:02.901Z,996
2017-04-05T05:49:43.437Z,1036
2017-04-05T05:50:23.980Z,1072
2017-04-05T05:51:04.536Z,1108
2017-04-05T05:51:45.071Z,1148
2017-04-05T05:52:25.582Z,1180
2017-04-05T05:53:06.138Z,1200
2017-04-05T05:53:46.664Z,1232
2017-04-05T05:54:27.271Z,1272
2017-04-05T05:55:07.784Z,1308
2017-04-05T05:55:48.322Z,1336
2017-04-05T05:56:28.858Z,1352
2017-04-05T05:57:09.370Z,1372
2017-04-05T05:57:49.912Z,1384
2017-04-05T05:58:30.420Z,1380
2017-04-05T05:59:10.956Z,1380
2017-04-05T05:59:51.483Z,1396
2017-04-05T06:00:31.986Z,1412
2017-04-05T06:01:12.511Z,1432
2017-04-05T06:01:53.054Z,1464
2017-04-05T06:02:33.590Z,1488
2017-04-05T06:03:14.116Z,1504
2017-04-05T06:03:54.675Z,1520
2017-04-05T06:04:35.165Z,1532
2017-04-05T06:05:15.701Z,1540
2017-04-05T06:05:56.242Z,1552
2017-04-05T06:06:36.798Z,1564
2017-04-05T06:07:17.313Z,1576
2017-04-05T06:07:57.841Z,1588
2017-04-05T06:08:38.377Z,1608
2017-04-05T06:09:18.922Z,1628
2017-04-05T06:09:59.442Z,1644
2017-04-05T06:10:40.024Z,1668
2017-04-05T06:11:20.556Z,1692
2017-04-05T06:12:01.095Z,1708
2017-04-05T06:12:41.596Z,1724
2017-04-05T06:13:22.131Z,1748
2017-04-05T06:14:02.648Z,1776
2017-04-05T06:14:43.184Z,1808
2017-04-05T06:15:23.708Z,1832
2017-04-05T06:16:04.233Z,1848
2017-04-05T06:16:44.764Z,1868
2017-04-05T06:17:25.302Z,1864
2017-04-05T06:18:05.824Z,1868
2017-04-05T06:18:46.367Z,1888
2017-04-05T06:19:26.926Z,1912
2017-04-05T06:20:07.459Z,1940
2017-04-05T06:20:47.985Z,1956
2017-04-05T06:21:28.522Z,1980
2017-04-05T06:22:09.056Z,1996
2017-04-05T06:22:49.604Z,2016
2017-04-05T06:23:30.142Z,2036
2017-04-05T06:24:10.675Z,2052
2017-04-05T06:24:51.257Z,2072
2017-04-05T06:25:31.796Z,2104
2017-04-05T06:26:12.329Z,2136
2017-04-05T06:26:52.854Z,2176
2017-04-05T06:27:33.389Z,2232
2017-04-05T06:28:13.914Z,2288
2017-04-05T06:28:54.475Z,2376
2017-04-05T06:29:35.014Z,2476
2017-04-05T06:30:15.589Z,2568
2017-04-05T06:30:56.122Z,2668
2017-04-05T06:31:36.665Z,2768
2017-04-05T06:32:17.191Z,2868
2017-04-05T06:32:57.734Z,2988
2017-04-05T06:33:38.260Z,3096
2017-04-05T06:34:18.797Z,3228
2017-04-05T06:34:59.335Z,3340
2017-04-05T06:35:39.860Z,3416
2017-04-05T06:36:20.406Z,3420
2017-04-05T06:37:00.939Z,3372
2017-04-05T06:37:41.474Z,3320
2017-04-05T06:38:22.005Z,3240
2017-04-05T06:39:02.553Z,3244
2017-04-05T06:39:43.092Z,3188
2017-04-05T06:40:23.626Z,3120
2017-04-05T06:41:04.177Z,3164
2017-04-05T06:41:44.699Z,3240
2017-04-05T06:42:25.239Z,3252
2017-04-05T06:43:05.764Z,3244
2017-04-05T06:43:46.296Z,3164
2017-04-05T06:44:26.815Z,3036
2017-04-05T06:45:07.342Z,2944
2017-04-05T06:45:47.879Z,2880
2017-04-05T06:46:28.451Z,2812
2017-04-05T06:47:08.977Z,2764
2017-04-05T06:47:49.506Z,2732
2017-04-05T06:48:29.996Z,2784
2017-04-05T06:49:10.505Z,2864
2017-04-05T06:49:51.040Z,2904
2017-04-05T06:50:31.566Z,2996
2017-04-05T06:51:12.126Z,3076
2017-04-05T06:51:52.659Z,3248
2017-04-05T06:52:33.214Z,3432
2017-04-05T06:53:15.626Z,3580
2017-04-05T06:53:56.124Z,3656
2017-04-05T06:54:36.685Z,3784
2017-04-05T06:55:17.227Z,3872
2017-04-05T06:55:57.761Z,3728
2017-04-05T06:56:38.302Z,3784
2017-04-05T06:57:18.835Z,3812
2017-04-05T06:57:59.377Z,3900
2017-04-05T06:58:39.910Z,3772
2017-04-05T06:59:20.446Z,3708
2017-04-05T07:00:00.977Z,3912
2017-04-05T07:00:41.514Z,4124
2017-04-05T07:01:22.054Z,4260
2017-04-05T07:02:02.586Z,4284
2017-04-05T07:02:43.119Z,4332
2017-04-05T07:03:23.649Z,4324
2017-04-05T07:04:04.186Z,4280
2017-04-05T07:04:44.722Z,4172
2017-04-05T07:05:25.255Z,4132
2017-04-05T07:06:05.788Z,4160
2017-04-05T07:06:46.322Z,4240
2017-04-05T07:07:26.853Z,4172
2017-04-05T07:08:07.389Z,4064
2017-04-05T07:08:47.920Z,4084
2017-04-05T07:09:28.457Z,4128
2017-04-05T07:10:08.992Z,4196
2017-04-05T07:10:49.525Z,4236
2017-04-05T07:11:30.073Z,4248
2017-04-05T07:12:10.606Z,4260
2017-04-05T07:12:51.134Z,4236
2017-04-05T07:13:31.667Z,4208
2017-04-05T07:14:12.210Z,4224
2017-04-05T07:14:52.748Z,4344
2017-04-05T07:15:33.285Z,4468
2017-04-05T07:16:13.825Z,4592
2017-04-05T07:16:54.359Z,4716
2017-04-05T07:17:34.887Z,4816
2017-04-05T07:18:15.422Z,4880
2017-04-05T07:18:55.959Z,4936
2017-04-05T07:19:36.500Z,5000
2017-04-05T07:20:17.032Z,5116
2017-04-05T07:20:57.571Z,5200
2017-04-05T07:21:38.102Z,5304
2017-04-05T07:22:18.641Z,5368
2017-04-05T07:22:59.176Z,5424
2017-04-05T07:23:39.718Z,5516
2017-04-05T07:24:20.253Z,5660
2017-04-05T07:25:00.794Z,5780
2017-04-05T07:25:41.326Z,5824
2017-04-05T07:26:21.858Z,5908
2017-04-05T07:27:02.390Z,6000
2017-04-05T07:27:42.934Z,6052
2017-04-05T07:28:23.472Z,6116
2017-04-05T07:29:04.008Z,6168
2017-04-05T07:29:44.540Z,6216
2017-04-05T07:30:25.194Z,6216
2017-04-05T07:31:05.726Z,6184
2017-04-05T07:31:46.264Z,6268
2017-04-05T07:32:26.794Z,6264
2017-04-05T07:33:07.328Z,6324
2017-04-05T07:33:47.863Z,6360
2017-04-05T07:34:28.405Z,6396
2017-04-05T07:35:08.940Z,6440
2017-04-05T07:35:49.477Z,6480
2017-04-05T07:36:30.012Z,6528
2017-04-05T07:37:10.557Z,6548
2017-04-05T07:37:51.095Z,6648
2017-04-05T07:38:31.635Z,6688
2017-04-05T07:39:12.168Z,6672
2017-04-05T07:39:52.703Z,6632
2017-04-05T07:40:33.239Z,6468
2017-04-05T07:41:13.778Z,6136
2017-04-05T07:41:54.302Z,5652
2017-04-05T07:42:34.837Z,5056
2017-04-05T07:43:15.371Z,5076
2017-04-05T07:43:55.907Z,5424
2017-04-05T07:44:36.435Z,6244
2017-04-05T07:45:16.986Z,6588
2017-04-05T07:45:57.510Z,6712
2017-04-05T07:46:38.043Z,6784
2017-04-05T07:47:18.581Z,6848
2017-04-05T07:47:59.117Z,6916
2017-04-05T07:48:39.654Z,7032
2017-04-05T07:49:20.188Z,7108
2017-04-05T07:50:00.715Z,7108
2017-04-05T07:50:41.249Z,6964
2017-04-05T07:51:21.793Z,7136
2017-04-05T07:52:02.335Z,7096
2017-04-05T07:52:42.874Z,7116
2017-04-05T07:53:23.394Z,7128
2017-04-05T07:54:03.944Z,7296
2017-04-05T07:54:44.475Z,7452
2017-04-05T07:55:25.006Z,7624
2017-04-05T07:56:05.593Z,7704
2017-04-05T07:56:46.125Z,7772
2017-04-05T07:57:26.659Z,7804
2017-04-05T07:58:07.198Z,7908
2017-04-05T07:58:47.734Z,8036
2017-04-05T07:59:28.281Z,8152
2017-04-05T08:00:08.815Z,8824
2017-04-05T08:00:49.352Z,9380
2017-04-05T08:01:29.895Z,9356
2017-04-05T08:02:10.417Z,8532
2017-04-05T08:02:50.952Z,8404
2017-04-05T08:03:31.488Z,9632
2017-04-05T08:04:12.032Z,14076
2017-04-05T08:04:52.570Z,14920
2017-04-05T08:05:33.098Z,11876
2017-04-05T08:06:13.635Z,9692
2017-04-05T08:06:54.166Z,13440
2017-04-05T08:07:34.705Z,17312
2017-04-05T08:08:15.232Z,16192
2017-04-05T08:08:55.774Z,10812
2017-04-05T08:09:36.313Z,8980
2017-04-05T08:10:16.837Z,8960
2017-04-05T08:10:57.371Z,8684
2017-04-05T08:11:37.908Z,8952
2017-04-05T08:12:18.444Z,9048
2017-04-05T08:12:58.978Z,9156
2017-04-05T08:13:39.516Z,9272
2017-04-05T08:14:20.057Z,9604
2017-04-05T08:15:00.590Z,13196
2017-04-05T08:15:41.118Z,14400
2017-04-05T08:16:21.662Z,11944
2017-04-05T08:17:02.199Z,9776
2017-04-05T08:17:42.735Z,9716
2017-04-05T08:18:23.278Z,9660
2017-04-05T08:19:03.812Z,9768
2017-04-05T08:19:44.339Z,10288
2017-04-05T08:20:24.874Z,10488
2017-04-05T08:21:05.418Z,10556
2017-04-05T08:21:45.951Z,10804
2017-04-05T08:22:26.493Z,12648
2017-04-05T08:23:07.031Z,13528
2017-04-05T08:23:47.544Z,12840
2017-04-05T08:24:28.126Z,11792
2017-04-05T08:25:08.666Z,14728
2017-04-05T08:25:49.213Z,17696
2017-04-05T08:26:29.728Z,17504
2017-04-05T08:27:10.271Z,14568
2017-04-05T08:27:50.812Z,12192
2017-04-05T08:28:31.344Z,11300
2017-04-05T08:29:11.884Z,12120
2017-04-05T08:29:52.421Z,14772
2017-04-05T08:30:32.956Z,18880
2017-04-05T08:31:13.491Z,22176
2017-04-05T08:31:54.028Z,24224
2017-04-05T08:32:34.560Z,25056
2017-04-05T08:33:15.094Z,26016
2017-04-05T08:33:55.642Z,26592
2017-04-05T08:34:36.173Z,28704
2017-04-05T08:35:16.711Z,27776
2017-04-05T08:35:57.248Z,24256
2017-04-05T08:36:37.784Z,20960
2017-04-05T08:37:18.326Z,19200
2017-04-05T08:37:58.870Z,17280
2017-04-05T08:38:39.409Z,16832
2017-04-05T08:39:19.946Z,17024
2017-04-05T08:40:00.478Z,14704
2017-04-05T08:40:41.011Z,11644
2017-04-05T08:41:21.549Z,12260
2017-04-05T08:42:02.087Z,12792
2017-04-05T08:42:42.620Z,11684
2017-04-05T08:43:23.164Z,11188
2017-04-05T08:44:03.699Z,10884
2017-04-05T08:44:44.234Z,11076
2017-04-05T08:45:24.771Z,11312
2017-04-05T08:46:05.309Z,11396
2017-04-05T08:46:45.850Z,11268
2017-04-05T08:47:26.389Z,10976
2017-04-05T08:48:06.927Z,10604
2017-04-05T08:48:47.466Z,10400
2017-04-05T08:49:28.008Z,10176
2017-04-05T08:50:08.571Z,9684
2017-04-05T08:50:49.079Z,9116
2017-04-05T08:51:29.615Z,9184
2017-04-05T08:52:10.151Z,9180
2017-04-05T08:52:50.696Z,8576
2017-04-05T08:53:33.758Z,8344
2017-04-05T08:54:14.278Z,8172
2017-04-05T08:54:54.817Z,7940
2017-04-05T08:55:35.357Z,7972
2017-04-05T08:56:15.893Z,7976
2017-04-05T08:56:56.435Z,8220
2017-04-05T08:57:36.971Z,8736
2017-04-05T08:58:17.510Z,9160
2017-04-05T08:58:58.041Z,10472
2017-04-05T08:59:38.580Z,11732
2017-04-05T09:00:19.118Z,13424
2017-04-05T09:00:59.666Z,15084
2017-04-05T09:01:40.206Z,16116
2017-04-05T09:02:20.741Z,16520
2017-04-05T09:03:01.276Z,16152
2017-04-05T09:03:41.816Z,16072
2017-04-05T09:04:22.355Z,16640
2017-04-05T09:05:02.890Z,23488
2017-04-05T09:05:43.425Z,20352
2017-04-05T09:06:23.966Z,18400
2017-04-05T09:07:04.493Z,15156
2017-04-05T09:07:45.044Z,14728
2017-04-05T09:08:25.590Z,16832
2017-04-05T09:09:06.134Z,17536
2017-04-05T09:09:46.665Z,17344
2017-04-05T09:10:27.216Z,17024
2017-04-05T09:11:07.742Z,17696
2017-04-05T09:11:48.279Z,15336
2017-04-05T09:12:28.823Z,16288
2017-04-05T09:13:09.364Z,14940
2017-04-05T09:13:49.891Z,17760
2017-04-05T09:14:30.465Z,19712
2017-04-05T09:15:11.002Z,22304
2017-04-05T09:15:51.538Z,24288
2017-04-05T09:16:32.076Z,26016
2017-04-05T09:17:12.624Z,26048
2017-04-05T09:17:53.157Z,24672
2017-04-05T09:18:33.699Z,26720
2017-04-05T09:19:14.239Z,27072
2017-04-05T09:19:54.778Z,24480
2017-04-05T09:20:35.314Z,20672
2017-04-05T09:21:15.850Z,19520
2017-04-05T09:21:56.375Z,20064
2017-04-05T09:22:36.909Z,20288
2017-04-05T09:23:17.451Z,15652
2017-04-05T09:23:57.991Z,18048
2017-04-05T09:24:38.535Z,17696
2017-04-05T09:25:19.080Z,16928
2017-04-05T09:25:59.622Z,17504
2017-04-05T09:26:40.151Z,17280
2017-04-05T09:27:20.697Z,15960
2017-04-05T09:28:01.232Z,15664
2017-04-05T09:28:41.768Z,15724